createdAt,value
2022-09-28T00:04:22.606Z,0.60
2022-09-28T00:09:27.235Z,0.60
2022-09-28T00:14:29.407Z,0.50
2022-09-28T00:19:34.206Z,0.60
2022-09-28T00:24:36.405Z,0.57
2022-09-28T00:29:38.650Z,0.60
2022-09-28T00:34:43.149Z,0.50
2022-09-28T00:39:45.405Z,0.47
2022-09-28T00:44:54.429Z,0.52
2022-09-28T00:49:59.222Z,0.55
2022-09-28T00:55:02.638Z,0.73
2022-09-28T01:00:05.803Z,0.65
2022-09-28T01:05:10.283Z,0.68
2022-09-28T01:10:13.172Z,0.73
2022-09-28T01:15:15.696Z,1.00
2022-09-28T01:20:28.227Z,0.75
2022-09-28T01:25:30.223Z,0.50
2022-09-28T01:30:36.235Z,0.90
2022-09-28T01:35:43.223Z,0.60
2022-09-28T01:40:45.745Z,0.60
2022-09-28T01:45:49.998Z,0.73
2022-09-28T01:50:54.305Z,0.70
2022-09-28T01:55:59.634Z,0.70
2022-09-28T02:01:04.084Z,0.82
2022-09-28T02:06:15.534Z,0.68
2022-09-28T02:11:18.701Z,0.80
2022-09-28T02:16:41.228Z,0.73
2022-09-28T02:21:49.190Z,0.70
2022-09-28T02:26:52.658Z,0.50
2022-09-28T02:31:54.799Z,0.65
2022-09-28T02:36:56.899Z,0.50
2022-09-28T02:42:08.582Z,0.40
2022-09-28T02:47:29.555Z,0.20
2022-09-28T02:52:44.501Z,0.10
2022-09-28T02:57:48.817Z,0.00
2022-09-28T03:02:58.892Z,0.10
2022-09-28T03:08:02.868Z,0.10
2022-09-28T03:13:05.291Z,0.10
2022-09-28T03:18:07.322Z,0.05
2022-09-28T03:23:25.540Z,0.00
2022-09-28T03:28:27.924Z,0.08
2022-09-28T03:33:29.961Z,0.00
2022-09-28T03:38:32.065Z,0.00
2022-09-28T03:43:34.177Z,0.10
2022-09-28T03:48:36.559Z,0.03
2022-09-28T03:53:38.897Z,0.10
2022-09-28T03:58:41.193Z,0.10
2022-09-28T04:03:43.686Z,0.10
2022-09-28T04:08:46.466Z,0.10
2022-09-28T04:13:52.230Z,0.10
2022-09-28T04:18:54.301Z,0.00
2022-09-28T04:23:59.235Z,0.20
2022-09-28T04:29:16.638Z,0.10
2022-09-28T04:34:20.123Z,0.05
2022-09-28T04:39:22.182Z,0.22
2022-09-28T04:44:24.278Z,0.20
2022-09-28T04:49:26.389Z,0.20
2022-09-28T04:54:28.405Z,0.40
2022-09-28T04:59:30.439Z,0.30
2022-09-28T05:04:32.528Z,0.30
2022-09-28T05:09:38.235Z,0.20
2022-09-28T05:14:41.222Z,0.25
2022-09-28T05:19:43.355Z,0.13
2022-09-28T05:24:46.389Z,0.30
2022-09-28T05:29:48.500Z,0.28
2022-09-28T05:34:50.600Z,0.10
2022-09-28T05:39:52.748Z,0.20
2022-09-28T05:44:54.775Z,0.30
2022-09-28T05:49:56.990Z,0.30
2022-09-28T05:54:59.026Z,0.30
2022-09-28T06:00:01.136Z,0.45
2022-09-28T06:05:03.233Z,0.28
2022-09-28T06:10:05.562Z,0.50
2022-09-28T06:15:07.955Z,0.40
2022-09-28T06:20:10.588Z,0.40
2022-09-28T06:25:12.688Z,0.30
2022-09-28T06:30:14.828Z,0.38
2022-09-28T06:35:16.938Z,0.50
2022-09-28T06:40:19.480Z,0.40
2022-09-28T06:45:24.441Z,0.60
2022-09-28T06:50:27.646Z,0.73
2022-09-28T06:55:29.895Z,0.93
2022-09-28T07:00:34.043Z,0.50
2022-09-28T07:05:36.883Z,0.60
2022-09-28T07:10:42.845Z,0.30
2022-09-28T07:15:45.741Z,0.30
2022-09-28T07:20:54.232Z,0.50
2022-09-28T07:25:58.086Z,0.40
2022-09-28T07:31:01.139Z,0.40
2022-09-28T07:36:06.502Z,0.20
2022-09-28T07:41:12.268Z,0.30
2022-09-28T07:46:14.708Z,0.30
2022-09-28T07:51:19.724Z,0.30
2022-09-28T07:56:21.892Z,0.30
2022-09-28T08:01:24.120Z,0.30
2022-09-28T08:06:26.255Z,0.20
2022-09-28T08:11:28.299Z,0.20
2022-09-28T08:16:31.343Z,0.20
2022-09-28T08:21:45.703Z,0.10
2022-09-28T08:26:47.738Z,0.28
2022-09-28T08:31:49.819Z,0.35
2022-09-28T08:36:51.855Z,0.10
2022-09-28T08:42:12.673Z,0.20
2022-09-28T08:47:53.495Z,0.10
2022-09-28T08:52:57.679Z,0.52
2022-09-28T08:58:11.568Z,0.10
2022-09-28T09:03:15.514Z,0.20
2022-09-28T09:08:20.559Z,0.28
2022-09-28T09:13:41.273Z,0.20
2022-09-28T09:18:47.758Z,0.10
2022-09-28T09:23:56.755Z,0.10
2022-09-28T09:29:03.601Z,0.10
2022-09-28T09:34:12.550Z,0.10
2022-09-28T09:39:26.511Z,0.10
2022-09-28T09:44:31.536Z,0.13
2022-09-28T09:49:39.617Z,0.10
2022-09-28T09:54:47.370Z,0.13
2022-09-28T09:59:50.007Z,0.10
2022-09-28T10:04:54.903Z,0.08
2022-09-28T10:09:58.870Z,0.00
2022-09-28T10:15:02.597Z,0.10
2022-09-28T10:20:05.241Z,0.10
2022-09-28T10:25:09.745Z,0.00
2022-09-28T10:30:11.958Z,0.00
2022-09-28T10:35:14.746Z,0.03
2022-09-28T10:40:30.309Z,0.00
2022-09-28T10:45:35.655Z,0.10
2022-09-28T10:50:39.093Z,0.10
2022-09-28T10:55:41.238Z,0.00
2022-09-28T11:00:43.726Z,0.10
2022-09-28T11:05:57.142Z,0.10
2022-09-28T11:11:07.117Z,0.38
2022-09-28T11:16:09.791Z,0.00
2022-09-28T11:21:16.630Z,0.10
2022-09-28T11:26:19.108Z,0.20
2022-09-28T11:31:28.892Z,0.00
2022-09-28T11:36:58.409Z,0.00
2022-09-28T11:42:16.643Z,0.10
2022-09-28T11:47:38.810Z,0.10
2022-09-28T11:52:45.379Z,0.10
2022-09-28T11:57:49.430Z,0.10
2022-09-28T12:02:58.966Z,0.20
2022-09-28T12:08:07.434Z,0.10
2022-09-28T12:13:28.883Z,0.17
2022-09-28T12:18:38.064Z,0.10
2022-09-28T12:23:42.122Z,0.10
2022-09-28T12:28:52.248Z,0.20
2022-09-28T12:33:54.280Z,0.10
2022-09-28T12:39:30.747Z,0.10
2022-09-28T12:44:44.732Z,0.20
2022-09-28T12:50:37.714Z,0.10
2022-09-28T12:55:33.889Z,0.10
2022-09-28T13:00:41.055Z,0.15
2022-09-28T13:11:07.560Z,0.00
2022-09-28T13:16:12.847Z,0.13
2022-09-28T13:21:34.241Z,0.00
2022-09-28T13:26:41.011Z,0.17
2022-09-28T13:31:46.619Z,0.00
2022-09-28T13:37:07.330Z,0.05
2022-09-28T13:42:10.334Z,0.00
2022-09-28T13:47:31.180Z,0.10
2022-09-28T13:52:33.193Z,0.20
2022-09-28T13:57:42.189Z,0.00
2022-09-28T14:03:01.441Z,0.00
2022-09-28T14:08:09.510Z,0.00
2022-09-28T14:13:12.187Z,0.10
2022-09-28T14:18:20.222Z,0.20
2022-09-28T14:23:29.815Z,0.05
2022-09-28T14:28:31.825Z,0.10
2022-09-28T14:33:34.331Z,0.20
2022-09-28T14:38:58.857Z,0.10
2022-09-28T14:44:02.738Z,0.10
2022-09-28T15:31:17.669Z,0.10
2022-09-28T15:31:34.010Z,0.10
2022-09-28T15:31:45.879Z,0.13
2022-09-28T15:37:08.939Z,0.30
2022-09-28T15:42:10.374Z,0.15
2022-09-28T15:47:14.137Z,0.13
2022-09-28T15:52:24.980Z,0.10
2022-09-28T15:57:36.847Z,0.25
2022-09-28T16:02:38.569Z,0.20
2022-09-28T16:07:41.487Z,0.20
2022-09-28T16:12:58.719Z,0.20
2022-09-28T16:18:04.424Z,0.30
2022-09-28T16:23:15.388Z,0.40
2022-09-28T16:28:38.002Z,0.28
2022-09-28T16:33:55.072Z,0.30
2022-09-28T16:38:56.607Z,0.98
2022-09-28T16:44:02.027Z,0.43
2022-09-28T16:49:05.877Z,0.40
2022-09-28T16:54:37.216Z,0.55
2022-09-28T16:59:38.820Z,0.30
2022-09-28T17:04:41.332Z,1.95
2022-09-28T17:09:45.073Z,0.25
2022-09-28T17:14:46.611Z,0.30
2022-09-28T17:19:48.176Z,0.30
2022-09-28T17:24:49.923Z,1.00
2022-09-28T17:29:51.372Z,0.40
2022-09-28T17:35:06.448Z,0.40
2022-09-28T17:40:41.375Z,0.40
2022-09-28T17:45:46.375Z,0.60
2022-09-28T17:50:48.214Z,0.50
2022-09-28T17:55:49.579Z,0.50
2022-09-28T18:00:51.707Z,1.70
2022-09-28T18:06:01.274Z,2.88
2022-09-28T18:11:02.750Z,1.45
2022-09-28T18:16:05.017Z,2.72
2022-09-28T18:21:07.128Z,0.82
2022-09-28T18:26:12.794Z,1.30
2022-09-28T18:31:15.821Z,0.90
2022-09-28T18:36:17.383Z,1.38
2022-09-28T18:41:18.794Z,4.75
2022-09-28T18:46:20.214Z,2.67
2022-09-28T18:51:21.866Z,1.00
2022-09-28T18:56:23.318Z,0.93
2022-09-28T19:01:29.981Z,1.10
2022-09-28T19:06:34.228Z,2.13
2022-09-28T19:11:36.118Z,2.22
2022-09-28T19:16:37.806Z,1.73
2022-09-28T19:21:40.252Z,1.08
2022-09-28T19:26:42.492Z,1.20
2022-09-28T19:31:43.950Z,1.33
2022-09-28T19:36:45.400Z,1.30
2022-09-28T19:41:51.100Z,1.70
2022-09-28T19:47:06.853Z,1.88
2022-09-28T19:52:16.561Z,2.17
2022-09-28T19:57:19.478Z,1.83
2022-09-28T20:02:21.629Z,2.20
2022-09-28T20:07:23.086Z,2.13
2022-09-28T20:12:24.703Z,2.50
2022-09-28T20:17:26.083Z,2.28
2022-09-28T20:22:27.433Z,2.20
2022-09-28T20:27:28.807Z,1.67
2022-09-28T20:32:33.612Z,2.08
2022-09-28T20:37:35.029Z,2.33
2022-09-28T20:42:37.826Z,2.55
2022-09-28T20:47:39.699Z,2.65
2022-09-28T20:52:41.070Z,2.40
2022-09-28T20:57:42.420Z,3.15
2022-09-28T21:02:43.826Z,2.55
2022-09-28T21:07:45.350Z,2.05
2022-09-28T21:12:53.000Z,2.17
2022-09-28T21:17:54.399Z,1.02
2022-09-28T21:22:55.770Z,0.55
2022-09-28T21:27:57.156Z,0.50
2022-09-28T21:33:00.057Z,0.50
2022-09-28T21:38:01.423Z,0.50
2022-09-28T21:43:02.764Z,0.68
2022-09-28T21:48:04.254Z,0.40
2022-09-28T21:53:05.601Z,3.28
2022-09-28T21:58:06.944Z,1.50
2022-09-28T22:03:08.410Z,0.80
2022-09-28T22:08:09.798Z,1.20
2022-09-28T22:13:11.318Z,2.40
2022-09-28T22:18:12.650Z,0.90
2022-09-28T22:23:14.031Z,0.88
2022-09-28T22:28:15.791Z,0.80
2022-09-28T22:33:17.108Z,0.70
2022-09-28T22:38:19.963Z,1.40
2022-09-28T22:43:25.930Z,1.15
2022-09-28T22:48:27.351Z,1.10
2022-09-28T22:53:29.390Z,1.00
2022-09-28T22:58:31.830Z,1.45
2022-09-28T23:03:33.262Z,0.80
2022-09-28T23:08:35.495Z,0.90
2022-09-28T23:13:38.203Z,1.05
2022-09-28T23:18:43.671Z,1.20
2022-09-28T23:23:46.441Z,1.10
2022-09-28T23:28:48.188Z,0.90
2022-09-28T23:33:50.242Z,1.38
2022-09-28T23:38:51.731Z,1.27
2022-09-28T23:43:53.106Z,1.85
2022-09-28T23:48:54.455Z,0.90
2022-09-28T23:53:55.795Z,1.15
2022-09-28T23:58:57.136Z,0.80
